sensor_id;sensor_type;location;lat;lon;timestamp;pressure;altitude;pressure_sealevel;temperature;humidity
75536;BME280;64119;52.070;20.804;2024-03-22T00:00:11;100522.10;;;8.39;94.22
75536;BME280;64119;52.070;20.804;2024-03-22T00:02:59;100525.65;;;8.40;94.72
75536;BME280;64119;52.070;20.804;2024-03-22T00:05:27;100524.68;;;8.41;94.15
75536;BME280;64119;52.070;20.804;2024-03-22T00:07:54;100521.37;;;8.44;94.33
75536;BME280;64119;52.070;20.804;2024-03-22T00:10:22;100523.39;;;8.43;93.99
75536;BME280;64119;52.070;20.804;2024-03-22T00:12:49;100526.41;;;8.44;93.89
75536;BME280;64119;52.070;20.804;2024-03-22T00:15:17;100527.38;;;8.45;93.95
75536;BME280;64119;52.070;20.804;2024-03-22T00:17:45;100523.18;;;8.45;94.97
75536;BME280;64119;52.070;20.804;2024-03-22T00:20:13;100518.15;;;8.46;95.00
75536;BME280;64119;52.070;20.804;2024-03-22T00:22:40;100517.13;;;8.45;95.10
75536;BME280;64119;52.070;20.804;2024-03-22T00:25:08;100516.53;;;8.46;95.32
75536;BME280;64119;52.070;20.804;2024-03-22T00:27:35;100514.19;;;8.47;95.38
75536;BME280;64119;52.070;20.804;2024-03-22T00:30:04;100510.29;;;8.47;95.27
75536;BME280;64119;52.070;20.804;2024-03-22T00:32:32;100509.20;;;8.47;95.33
75536;BME280;64119;52.070;20.804;2024-03-22T00:34:59;100504.86;;;8.48;95.73
75536;BME280;64119;52.070;20.804;2024-03-22T00:37:27;100499.47;;;8.47;95.67
75536;BME280;64119;52.070;20.804;2024-03-22T00:39:55;100499.60;;;8.48;95.25
75536;BME280;64119;52.070;20.804;2024-03-22T00:42:22;100500.03;;;8.48;96.67
75536;BME280;64119;52.070;20.804;2024-03-22T00:44:50;100498.80;;;8.48;95.66
75536;BME280;64119;52.070;20.804;2024-03-22T00:47:17;100497.13;;;8.49;95.53
75536;BME280;64119;52.070;20.804;2024-03-22T00:49:45;100498.40;;;8.50;95.37
75536;BME280;64119;52.070;20.804;2024-03-22T00:52:12;100494.20;;;8.52;95.53
75536;BME280;64119;52.070;20.804;2024-03-22T00:54:40;100496.29;;;8.52;96.44
75536;BME280;64119;52.070;20.804;2024-03-22T00:57:08;100496.39;;;8.54;95.36
75536;BME280;64119;52.070;20.804;2024-03-22T00:59:35;100500.08;;;8.56;96.87
75536;BME280;64119;52.070;20.804;2024-03-22T01:02:03;100497.09;;;8.56;96.56
75536;BME280;64119;52.070;20.804;2024-03-22T01:04:31;100496.15;;;8.58;96.12
75536;BME280;64119;52.070;20.804;2024-03-22T01:06:58;100496.88;;;8.59;96.07
75536;BME280;64119;52.070;20.804;2024-03-22T01:09:26;100497.36;;;8.63;95.78
75536;BME280;64119;52.070;20.804;2024-03-22T01:11:54;100498.66;;;8.65;95.38
75536;BME280;64119;52.070;20.804;2024-03-22T01:14:21;100493.48;;;8.67;98.01
75536;BME280;64119;52.070;20.804;2024-03-22T01:16:49;100496.07;;;8.69;97.55
75536;BME280;64119;52.070;20.804;2024-03-22T01:19:16;100490.11;;;8.72;96.45
75536;BME280;64119;52.070;20.804;2024-03-22T01:21:44;100486.26;;;8.75;96.69
75536;BME280;64119;52.070;20.804;2024-03-22T01:24:11;100484.66;;;8.77;98.32
75536;BME280;64119;52.070;20.804;2024-03-22T01:26:38;100486.43;;;8.78;98.95
75536;BME280;64119;52.070;20.804;2024-03-22T01:29:06;100480.02;;;8.80;97.90
75536;BME280;64119;52.070;20.804;2024-03-22T01:31:33;100479.11;;;8.82;97.51
75536;BME280;64119;52.070;20.804;2024-03-22T01:34:01;100477.23;;;8.84;99.07
75536;BME280;64119;52.070;20.804;2024-03-22T01:36:29;100475.09;;;8.85;99.57
75536;BME280;64119;52.070;20.804;2024-03-22T01:38:56;100478.66;;;8.86;98.70
75536;BME280;64119;52.070;20.804;2024-03-22T01:41:24;100482.95;;;8.87;99.98
75536;BME280;64119;52.070;20.804;2024-03-22T01:43:51;100484.57;;;8.88;99.93
75536;BME280;64119;52.070;20.804;2024-03-22T01:46:19;100484.38;;;8.89;99.49
75536;BME280;64119;52.070;20.804;2024-03-22T01:48:46;100480.58;;;8.89;98.48
75536;BME280;64119;52.070;20.804;2024-03-22T01:51:14;100479.79;;;8.92;99.06
75536;BME280;64119;52.070;20.804;2024-03-22T01:53:42;100480.54;;;8.92;99.02
75536;BME280;64119;52.070;20.804;2024-03-22T01:56:10;100476.21;;;8.92;99.63
75536;BME280;64119;52.070;20.804;2024-03-22T01:58:37;100473.04;;;8.93;98.62
75536;BME280;64119;52.070;20.804;2024-03-22T02:01:05;100474.81;;;8.93;99.79
75536;BME280;64119;52.070;20.804;2024-03-22T02:03:32;100469.95;;;8.92;100.00
75536;BME280;64119;52.070;20.804;2024-03-22T02:06:00;100468.10;;;8.93;99.37
75536;BME280;64119;52.070;20.804;2024-03-22T02:08:27;100466.30;;;8.95;99.57
75536;BME280;64119;52.070;20.804;2024-03-22T02:10:55;100464.55;;;8.95;99.59
75536;BME280;64119;52.070;20.804;2024-03-22T02:13:22;100462.82;;;8.96;99.61
75536;BME280;64119;52.070;20.804;2024-03-22T02:15:50;100458.27;;;8.94;100.00
75536;BME280;64119;52.070;20.804;2024-03-22T02:18:17;100457.89;;;8.96;100.00
75536;BME280;64119;52.070;20.804;2024-03-22T02:20:45;100456.79;;;8.96;99.99
75536;BME280;64119;52.070;20.804;2024-03-22T02:23:12;100458.02;;;8.97;100.00
75536;BME280;64119;52.070;20.804;2024-03-22T02:25:40;100456.73;;;8.97;99.82
75536;BME280;64119;52.070;20.804;2024-03-22T02:28:08;100458.25;;;8.98;100.00
75536;BME280;64119;52.070;20.804;2024-03-22T02:30:35;100461.05;;;8.98;100.00
75536;BME280;64119;52.070;20.804;2024-03-22T02:33:03;100463.80;;;8.98;100.00
75536;BME280;64119;52.070;20.804;2024-03-22T02:35:30;100462.95;;;8.98;100.00
75536;BME280;64119;52.070;20.804;2024-03-22T02:37:58;100463.60;;;8.99;100.00
75536;BME280;64119;52.070;20.804;2024-03-22T02:40:26;100461.94;;;8.99;100.00
75536;BME280;64119;52.070;20.804;2024-03-22T02:42:53;100459.95;;;9.00;100.00
75536;BME280;64119;52.070;20.804;2024-03-22T02:45:21;100457.99;;;9.00;100.00
75536;BME280;64119;52.070;20.804;2024-03-22T02:47:48;100456.11;;;9.01;100.00
75536;BME280;64119;52.070;20.804;2024-03-22T02:50:16;100455.38;;;9.01;100.00
75536;BME280;64119;52.070;20.804;2024-03-22T02:52:43;100457.25;;;9.01;100.00
75536;BME280;64119;52.070;20.804;2024-03-22T02:55:11;100454.39;;;9.02;100.00
75536;BME280;64119;52.070;20.804;2024-03-22T02:57:38;100454.94;;;9.02;100.00
75536;BME280;64119;52.070;20.804;2024-03-22T03:00:06;100459.94;;;9.03;99.97
75536;BME280;64119;52.070;20.804;2024-03-22T03:02:34;100455.19;;;9.04;99.41
75536;BME280;64119;52.070;20.804;2024-03-22T03:05:02;100456.67;;;9.05;99.52
75536;BME280;64119;52.070;20.804;2024-03-22T03:07:30;100458.25;;;9.06;99.63
75536;BME280;64119;52.070;20.804;2024-03-22T03:09:58;100454.55;;;9.07;99.83
75536;BME280;64119;52.070;20.804;2024-03-22T03:12:25;100452.59;;;9.07;100.00
75536;BME280;64119;52.070;20.804;2024-03-22T03:14:53;100456.86;;;9.06;100.00
75536;BME280;64119;52.070;20.804;2024-03-22T03:17:20;100452.94;;;9.05;100.00
75536;BME280;64119;52.070;20.804;2024-03-22T03:19:48;100451.55;;;9.07;100.00
75536;BME280;64119;52.070;20.804;2024-03-22T03:22:16;100450.76;;;9.06;100.00
75536;BME280;64119;52.070;20.804;2024-03-22T03:24:43;100447.32;;;9.05;100.00
75536;BME280;64119;52.070;20.804;2024-03-22T03:27:11;100451.63;;;9.06;100.00
75536;BME280;64119;52.070;20.804;2024-03-22T03:29:38;100453.60;;;9.06;100.00
75536;BME280;64119;52.070;20.804;2024-03-22T03:32:06;100446.45;;;9.07;100.00
75536;BME280;64119;52.070;20.804;2024-03-22T03:34:33;100447.10;;;9.07;100.00
75536;BME280;64119;52.070;20.804;2024-03-22T03:37:01;100448.42;;;9.06;100.00
75536;BME280;64119;52.070;20.804;2024-03-22T03:39:28;100446.04;;;9.07;100.00
75536;BME280;64119;52.070;20.804;2024-03-22T03:41:56;100443.60;;;9.07;100.00
75536;BME280;64119;52.070;20.804;2024-03-22T03:44:24;100444.13;;;9.07;100.00
75536;BME280;64119;52.070;20.804;2024-03-22T03:46:51;100445.11;;;9.07;100.00
75536;BME280;64119;52.070;20.804;2024-03-22T03:49:19;100447.14;;;9.07;100.00
75536;BME280;64119;52.070;20.804;2024-03-22T03:51:46;100445.52;;;9.07;100.00
75536;BME280;64119;52.070;20.804;2024-03-22T03:54:14;100446.93;;;9.06;100.00
75536;BME280;64119;52.070;20.804;2024-03-22T03:56:41;100452.55;;;9.04;100.00
75536;BME280;64119;52.070;20.804;2024-03-22T03:59:09;100457.66;;;9.01;100.00
75536;BME280;64119;52.070;20.804;2024-03-22T04:01:36;100461.27;;;8.99;100.00
75536;BME280;64119;52.070;20.804;2024-03-22T04:04:04;100462.68;;;8.93;100.00
75536;BME280;64119;52.070;20.804;2024-03-22T04:06:31;100465.08;;;8.84;100.00
75536;BME280;64119;52.070;20.804;2024-03-22T04:08:59;100468.41;;;8.78;100.00
75536;BME280;64119;52.070;20.804;2024-03-22T04:11:26;100471.50;;;8.71;100.00
75536;BME280;64119;52.070;20.804;2024-03-22T04:13:54;100476.34;;;8.65;100.00
75536;BME280;64119;52.070;20.804;2024-03-22T04:16:22;100482.41;;;8.59;100.00
75536;BME280;64119;52.070;20.804;2024-03-22T04:18:49;100485.48;;;8.54;100.00
75536;BME280;64119;52.070;20.804;2024-03-22T04:21:17;100487.78;;;8.51;100.00
75536;BME280;64119;52.070;20.804;2024-03-22T04:23:44;100489.21;;;8.44;100.00
75536;BME280;64119;52.070;20.804;2024-03-22T04:26:12;100488.75;;;8.38;100.00
75536;BME280;64119;52.070;20.804;2024-03-22T04:28:39;100497.45;;;8.32;100.00
75536;BME280;64119;52.070;20.804;2024-03-22T04:31:08;100497.56;;;8.27;100.00
75536;BME280;64119;52.070;20.804;2024-03-22T04:33:37;100499.88;;;8.23;100.00
75536;BME280;64119;52.070;20.804;2024-03-22T04:36:05;100503.73;;;8.19;100.00
75536;BME280;64119;52.070;20.804;2024-03-22T04:38:33;100500.94;;;8.14;100.00
75536;BME280;64119;52.070;20.804;2024-03-22T04:41:00;100505.88;;;8.09;100.00
75536;BME280;64119;52.070;20.804;2024-03-22T04:43:28;100507.01;;;8.03;100.00
75536;BME280;64119;52.070;20.804;2024-03-22T04:45:56;100507.29;;;7.97;100.00
75536;BME280;64119;52.070;20.804;2024-03-22T04:48:24;100507.68;;;7.94;100.00
75536;BME280;64119;52.070;20.804;2024-03-22T04:50:52;100512.79;;;7.91;100.00
75536;BME280;64119;52.070;20.804;2024-03-22T04:53:20;100510.46;;;7.88;100.00
75536;BME280;64119;52.070;20.804;2024-03-22T04:55:49;100515.13;;;7.86;100.00
75536;BME280;64119;52.070;20.804;2024-03-22T04:58:18;100515.86;;;7.81;100.00
75536;BME280;64119;52.070;20.804;2024-03-22T05:00:47;100524.31;;;7.76;100.00
75536;BME280;64119;52.070;20.804;2024-03-22T05:03:15;100526.50;;;7.72;100.00
75536;BME280;64119;52.070;20.804;2024-03-22T05:05:43;100525.11;;;7.68;100.00
75536;BME280;64119;52.070;20.804;2024-03-22T05:08:11;100522.61;;;7.64;100.00
75536;BME280;64119;52.070;20.804;2024-03-22T05:10:39;100525.74;;;7.61;100.00
75536;BME280;64119;52.070;20.804;2024-03-22T05:13:06;100531.25;;;7.57;100.00
75536;BME280;64119;52.070;20.804;2024-03-22T05:15:34;100532.45;;;7.56;100.00
75536;BME280;64119;52.070;20.804;2024-03-22T05:18:01;100533.63;;;7.53;100.00
75536;BME280;64119;52.070;20.804;2024-03-22T05:20:29;100535.61;;;7.52;100.00
75536;BME280;64119;52.070;20.804;2024-03-22T05:22:58;100534.39;;;7.50;100.00
75536;BME280;64119;52.070;20.804;2024-03-22T05:25:26;100530.50;;;7.50;100.00
75536;BME280;64119;52.070;20.804;2024-03-22T05:27:56;100525.44;;;7.50;100.00
75536;BME280;64119;52.070;20.804;2024-03-22T05:30:24;100526.59;;;7.49;100.00
75536;BME280;64119;52.070;20.804;2024-03-22T05:32:51;100526.36;;;7.49;100.00
75536;BME280;64119;52.070;20.804;2024-03-22T05:35:18;100526.86;;;7.49;100.00
75536;BME280;64119;52.070;20.804;2024-03-22T05:37:46;100530.71;;;7.50;100.00
75536;BME280;64119;52.070;20.804;2024-03-22T05:40:15;100533.98;;;7.49;100.00
75536;BME280;64119;52.070;20.804;2024-03-22T05:42:43;100533.70;;;7.48;100.00
75536;BME280;64119;52.070;20.804;2024-03-22T05:45:10;100537.42;;;7.48;100.00
75536;BME280;64119;52.070;20.804;2024-03-22T05:47:38;100539.45;;;7.47;100.00
75536;BME280;64119;52.070;20.804;2024-03-22T05:50:06;100538.99;;;7.45;100.00
75536;BME280;64119;52.070;20.804;2024-03-22T05:52:35;100536.82;;;7.44;100.00
75536;BME280;64119;52.070;20.804;2024-03-22T05:55:03;100535.00;;;7.43;100.00
75536;BME280;64119;52.070;20.804;2024-03-22T05:57:31;100533.52;;;7.43;100.00
75536;BME280;64119;52.070;20.804;2024-03-22T05:59:58;100532.88;;;7.44;100.00
75536;BME280;64119;52.070;20.804;2024-03-22T06:02:26;100530.61;;;7.44;100.00
75536;BME280;64119;52.070;20.804;2024-03-22T06:04:53;100528.86;;;7.44;100.00
75536;BME280;64119;52.070;20.804;2024-03-22T06:07:21;100524.69;;;7.45;100.00
75536;BME280;64119;52.070;20.804;2024-03-22T06:09:49;100524.88;;;7.48;100.00
75536;BME280;64119;52.070;20.804;2024-03-22T06:12:16;100520.73;;;7.52;100.00
75536;BME280;64119;52.070;20.804;2024-03-22T06:14:45;100516.82;;;7.56;100.00
75536;BME280;64119;52.070;20.804;2024-03-22T06:17:16;100513.42;;;7.59;100.00
75536;BME280;64119;52.070;20.804;2024-03-22T06:19:44;100522.44;;;7.62;100.00
75536;BME280;64119;52.070;20.804;2024-03-22T06:22:11;100522.84;;;7.65;100.00
75536;BME280;64119;52.070;20.804;2024-03-22T06:24:39;100526.86;;;7.69;100.00
75536;BME280;64119;52.070;20.804;2024-03-22T06:27:07;100526.76;;;7.71;100.00
75536;BME280;64119;52.070;20.804;2024-03-22T06:29:35;100531.87;;;7.76;100.00
75536;BME280;64119;52.070;20.804;2024-03-22T06:32:02;100532.00;;;7.78;100.00
75536;BME280;64119;52.070;20.804;2024-03-22T06:34:30;100534.58;;;7.80;100.00
75536;BME280;64119;52.070;20.804;2024-03-22T06:36:58;100533.31;;;7.80;100.00
75536;BME280;64119;52.070;20.804;2024-03-22T06:39:25;100534.88;;;7.81;100.00
75536;BME280;64119;52.070;20.804;2024-03-22T06:41:53;100531.94;;;7.83;100.00
75536;BME280;64119;52.070;20.804;2024-03-22T06:44:20;100529.78;;;7.87;100.00
75536;BME280;64119;52.070;20.804;2024-03-22T06:46:48;100531.80;;;7.89;100.00
75536;BME280;64119;52.070;20.804;2024-03-22T06:49:16;100529.55;;;7.90;100.00
75536;BME280;64119;52.070;20.804;2024-03-22T06:51:44;100532.36;;;7.92;100.00
75536;BME280;64119;52.070;20.804;2024-03-22T06:54:12;100538.06;;;7.94;100.00
75536;BME280;64119;52.070;20.804;2024-03-22T06:56:40;100538.61;;;7.94;100.00
75536;BME280;64119;52.070;20.804;2024-03-22T06:59:08;100539.95;;;7.93;100.00
75536;BME280;64119;52.070;20.804;2024-03-22T07:01:36;100540.11;;;7.92;100.00
75536;BME280;64119;52.070;20.804;2024-03-22T07:04:04;100540.23;;;7.89;100.00
75536;BME280;64119;52.070;20.804;2024-03-22T07:06:31;100540.98;;;7.89;100.00
75536;BME280;64119;52.070;20.804;2024-03-22T07:08:58;100536.25;;;7.87;100.00
75536;BME280;64119;52.070;20.804;2024-03-22T07:11:26;100534.58;;;7.87;100.00
75536;BME280;64119;52.070;20.804;2024-03-22T07:13:54;100537.60;;;7.88;100.00
75536;BME280;64119;52.070;20.804;2024-03-22T07:16:21;100537.52;;;7.88;100.00
75536;BME280;64119;52.070;20.804;2024-03-22T07:18:49;100539.63;;;7.90;100.00
75536;BME280;64119;52.070;20.804;2024-03-22T07:21:16;100537.38;;;7.90;100.00
75536;BME280;64119;52.070;20.804;2024-03-22T07:23:44;100542.04;;;7.89;100.00
75536;BME280;64119;52.070;20.804;2024-03-22T07:26:11;100542.14;;;7.90;100.00
75536;BME280;64119;52.070;20.804;2024-03-22T07:28:40;100535.98;;;7.90;100.00
75536;BME280;64119;52.070;20.804;2024-03-22T07:31:07;100536.69;;;7.91;100.00
75536;BME280;64119;52.070;20.804;2024-03-22T07:33:35;100536.30;;;7.94;100.00
75536;BME280;64119;52.070;20.804;2024-03-22T07:36:03;100532.54;;;7.97;100.00
75536;BME280;64119;52.070;20.804;2024-03-22T07:38:30;100537.06;;;7.97;100.00
75536;BME280;64119;52.070;20.804;2024-03-22T07:40:58;100535.09;;;7.93;100.00
75536;BME280;64119;52.070;20.804;2024-03-22T07:43:25;100534.55;;;7.90;100.00
75536;BME280;64119;52.070;20.804;2024-03-22T07:45:53;100530.98;;;7.90;100.00
75536;BME280;64119;52.070;20.804;2024-03-22T07:48:20;100529.21;;;7.92;100.00
75536;BME280;64119;52.070;20.804;2024-03-22T07:50:59;100532.55;;;7.93;100.00
75536;BME280;64119;52.070;20.804;2024-03-22T07:53:26;100530.93;;;7.99;100.00
75536;BME280;64119;52.070;20.804;2024-03-22T07:55:57;100531.73;;;8.04;100.00
75536;BME280;64119;52.070;20.804;2024-03-22T07:58:25;100530.38;;;8.07;99.73
75536;BME280;64119;52.070;20.804;2024-03-22T08:00:52;100524.37;;;8.11;99.85
75536;BME280;64119;52.070;20.804;2024-03-22T08:03:20;100525.15;;;8.13;99.70
75536;BME280;64119;52.070;20.804;2024-03-22T08:05:47;100525.61;;;8.15;99.69
75536;BME280;64119;52.070;20.804;2024-03-22T08:08:15;100524.68;;;8.17;99.22
75536;BME280;64119;52.070;20.804;2024-03-22T08:10:43;100523.88;;;8.19;99.41
75536;BME280;64119;52.070;20.804;2024-03-22T08:13:10;100516.57;;;8.25;99.67
75536;BME280;64119;52.070;20.804;2024-03-22T08:15:38;100516.26;;;8.31;99.72
75536;BME280;64119;52.070;20.804;2024-03-22T08:18:06;100514.26;;;8.37;99.46
75536;BME280;64119;52.070;20.804;2024-03-22T08:20:33;100510.47;;;8.40;99.63
75536;BME280;64119;52.070;20.804;2024-03-22T08:23:02;100508.30;;;8.44;99.38
75536;BME280;64119;52.070;20.804;2024-03-22T08:25:29;100511.18;;;8.47;99.09
75536;BME280;64119;52.070;20.804;2024-03-22T08:27:57;100513.15;;;8.48;99.19
75536;BME280;64119;52.070;20.804;2024-03-22T08:30:31;100513.84;;;8.51;99.20
75536;BME280;64119;52.070;20.804;2024-03-22T08:32:59;100512.10;;;8.55;99.19
75536;BME280;64119;52.070;20.804;2024-03-22T08:35:26;100512.71;;;8.61;98.79
75536;BME280;64119;52.070;20.804;2024-03-22T08:37:54;100512.30;;;8.65;98.89
75536;BME280;64119;52.070;20.804;2024-03-22T08:40:22;100510.46;;;8.68;98.35
75536;BME280;64119;52.070;20.804;2024-03-22T08:42:50;100508.05;;;8.73;98.30
75536;BME280;64119;52.070;20.804;2024-03-22T08:45:18;100508.89;;;8.71;97.74
75536;BME280;64119;52.070;20.804;2024-03-22T08:47:45;100513.39;;;8.71;97.99
75536;BME280;64119;52.070;20.804;2024-03-22T08:50:13;100512.06;;;8.72;98.22
75536;BME280;64119;52.070;20.804;2024-03-22T08:52:42;100511.86;;;8.73;97.97
75536;BME280;64119;52.070;20.804;2024-03-22T08:55:10;100507.80;;;8.76;97.87
75536;BME280;64119;52.070;20.804;2024-03-22T08:57:38;100498.79;;;8.81;97.46
75536;BME280;64119;52.070;20.804;2024-03-22T09:00:16;100502.19;;;8.85;97.39
75536;BME280;64119;52.070;20.804;2024-03-22T09:02:44;100499.71;;;8.88;96.85
75536;BME280;64119;52.070;20.804;2024-03-22T09:05:12;100495.80;;;8.92;96.61
75536;BME280;64119;52.070;20.804;2024-03-22T09:07:39;100496.03;;;8.96;96.60
75536;BME280;64119;52.070;20.804;2024-03-22T09:10:07;100497.96;;;8.99;96.52
75536;BME280;64119;52.070;20.804;2024-03-22T09:12:35;100497.39;;;8.99;96.53
75536;BME280;64119;52.070;20.804;2024-03-22T09:15:03;100499.96;;;9.01;96.60
75536;BME280;64119;52.070;20.804;2024-03-22T09:17:30;100493.14;;;9.04;96.28
75536;BME280;64119;52.070;20.804;2024-03-22T09:19:58;100492.93;;;9.00;95.79
75536;BME280;64119;52.070;20.804;2024-03-22T09:22:25;100494.55;;;8.93;95.94
75536;BME280;64119;52.070;20.804;2024-03-22T09:24:53;100498.34;;;8.91;96.12
75536;BME280;64119;52.070;20.804;2024-03-22T09:27:21;100503.02;;;8.89;95.75
75536;BME280;64119;52.070;20.804;2024-03-22T09:29:48;100497.80;;;8.85;96.13
75536;BME280;64119;52.070;20.804;2024-03-22T09:32:16;100492.31;;;8.85;96.20
75536;BME280;64119;52.070;20.804;2024-03-22T09:34:43;100482.33;;;8.85;95.89
75536;BME280;64119;52.070;20.804;2024-03-22T09:37:11;100480.48;;;8.84;96.25
75536;BME280;64119;52.070;20.804;2024-03-22T09:39:39;100478.11;;;8.83;96.32
75536;BME280;64119;52.070;20.804;2024-03-22T09:42:06;100480.23;;;8.83;96.24
75536;BME280;64119;52.070;20.804;2024-03-22T09:44:35;100478.71;;;8.82;96.48
75536;BME280;64119;52.070;20.804;2024-03-22T09:47:04;100477.00;;;8.84;96.56
75536;BME280;64119;52.070;20.804;2024-03-22T09:49:31;100474.44;;;8.84;95.82
75536;BME280;64119;52.070;20.804;2024-03-22T09:51:59;100475.25;;;8.82;96.02
75536;BME280;64119;52.070;20.804;2024-03-22T09:54:27;100473.41;;;8.79;96.08
75536;BME280;64119;52.070;20.804;2024-03-22T09:56:56;100474.70;;;8.77;96.26
75536;BME280;64119;52.070;20.804;2024-03-22T09:59:23;100472.20;;;8.78;96.38
75536;BME280;64119;52.070;20.804;2024-03-22T10:01:52;100471.63;;;8.78;96.34
75536;BME280;64119;52.070;20.804;2024-03-22T10:04:20;100471.14;;;8.78;96.47
75536;BME280;64119;52.070;20.804;2024-03-22T10:06:48;100469.05;;;8.79;96.75
75536;BME280;64119;52.070;20.804;2024-03-22T10:09:15;100464.67;;;8.80;96.56
75536;BME280;64119;52.070;20.804;2024-03-22T10:11:45;100462.96;;;8.84;96.60
75536;BME280;64119;52.070;20.804;2024-03-22T10:14:13;100458.94;;;8.93;97.11
75536;BME280;64119;52.070;20.804;2024-03-22T10:16:55;100458.77;;;9.07;97.66
75536;BME280;64119;52.070;20.804;2024-03-22T10:19:24;100454.16;;;9.23;96.98
75536;BME280;64119;52.070;20.804;2024-03-22T10:24:30;100450.23;;;9.59;96.18
75536;BME280;64119;52.070;20.804;2024-03-22T10:26:57;100447.48;;;9.68;95.80
75536;BME280;64119;52.070;20.804;2024-03-22T10:29:25;100444.64;;;9.73;95.43
75536;BME280;64119;52.070;20.804;2024-03-22T10:31:55;100442.38;;;9.74;95.19
75536;BME280;64119;52.070;20.804;2024-03-22T10:34:27;100440.48;;;9.74;94.95
75536;BME280;64119;52.070;20.804;2024-03-22T10:36:56;100440.91;;;9.76;94.96
75536;BME280;64119;52.070;20.804;2024-03-22T10:39:26;100439.94;;;9.81;94.88
75536;BME280;64119;52.070;20.804;2024-03-22T10:41:53;100434.09;;;9.86;94.62
75536;BME280;64119;52.070;20.804;2024-03-22T10:44:21;100436.99;;;9.92;94.11
75536;BME280;64119;52.070;20.804;2024-03-22T10:46:54;100432.18;;;10.00;94.17
75536;BME280;64119;52.070;20.804;2024-03-22T10:49:23;100429.92;;;10.22;93.77
75536;BME280;64119;52.070;20.804;2024-03-22T10:51:58;100425.23;;;10.50;91.58
75536;BME280;64119;52.070;20.804;2024-03-22T10:54:34;100419.99;;;10.78;91.39
75536;BME280;64119;52.070;20.804;2024-03-22T10:57:03;100418.35;;;10.97;90.98
75536;BME280;64119;52.070;20.804;2024-03-22T10:59:35;100412.41;;;11.07;89.94
75536;BME280;64119;52.070;20.804;2024-03-22T11:02:03;100408.90;;;11.07;89.29
75536;BME280;64119;52.070;20.804;2024-03-22T11:04:32;100408.23;;;11.11;90.25
75536;BME280;64119;52.070;20.804;2024-03-22T11:06:59;100406.63;;;11.13;87.61
75536;BME280;64119;52.070;20.804;2024-03-22T11:09:27;100405.91;;;11.07;86.99
75536;BME280;64119;52.070;20.804;2024-03-22T11:11:56;100403.66;;;11.00;86.37
75536;BME280;64119;52.070;20.804;2024-03-22T11:14:26;100398.91;;;10.93;86.61
75536;BME280;64119;52.070;20.804;2024-03-22T11:16:53;100399.33;;;10.86;85.75
75536;BME280;64119;52.070;20.804;2024-03-22T11:19:21;100393.63;;;10.74;84.80
75536;BME280;64119;52.070;20.804;2024-03-22T11:21:49;100394.95;;;10.73;87.69
75536;BME280;64119;52.070;20.804;2024-03-22T11:24:16;100392.09;;;10.72;86.19
75536;BME280;64119;52.070;20.804;2024-03-22T11:26:43;100391.35;;;10.72;87.29
75536;BME280;64119;52.070;20.804;2024-03-22T11:29:14;100388.13;;;10.76;86.86
75536;BME280;64119;52.070;20.804;2024-03-22T11:31:41;100387.65;;;10.78;87.10
75536;BME280;64119;52.070;20.804;2024-03-22T11:34:09;100384.36;;;10.79;84.52
75536;BME280;64119;52.070;20.804;2024-03-22T11:36:39;100384.50;;;10.76;84.95
75536;BME280;64119;52.070;20.804;2024-03-22T11:39:06;100382.64;;;10.74;85.38
75536;BME280;64119;52.070;20.804;2024-03-22T11:41:34;100384.44;;;10.75;84.63
75536;BME280;64119;52.070;20.804;2024-03-22T11:44:02;100376.06;;;10.77;83.56
75536;BME280;64119;52.070;20.804;2024-03-22T11:46:30;100369.86;;;10.83;84.50
75536;BME280;64119;52.070;20.804;2024-03-22T11:48:58;100368.59;;;10.90;84.10
75536;BME280;64119;52.070;20.804;2024-03-22T11:51:26;100363.93;;;10.99;84.20
75536;BME280;64119;52.070;20.804;2024-03-22T11:53:54;100364.69;;;11.05;83.70
75536;BME280;64119;52.070;20.804;2024-03-22T11:56:24;100363.45;;;11.10;83.89
75536;BME280;64119;52.070;20.804;2024-03-22T11:58:59;100365.23;;;11.17;83.10
75536;BME280;64119;52.070;20.804;2024-03-22T12:01:28;100362.83;;;11.23;82.72
75536;BME280;64119;52.070;20.804;2024-03-22T12:04:01;100364.99;;;11.22;81.75
75536;BME280;64119;52.070;20.804;2024-03-22T12:06:29;100362.02;;;11.24;82.97
75536;BME280;64119;52.070;20.804;2024-03-22T12:08:57;100363.28;;;11.29;83.30
75536;BME280;64119;52.070;20.804;2024-03-22T12:11:24;100359.08;;;11.34;83.09
75536;BME280;64119;52.070;20.804;2024-03-22T12:13:52;100358.30;;;11.40;83.14
75536;BME280;64119;52.070;20.804;2024-03-22T12:16:20;100364.04;;;11.44;81.79
75536;BME280;64119;52.070;20.804;2024-03-22T12:18:47;100359.03;;;11.34;81.26
75536;BME280;64119;52.070;20.804;2024-03-22T12:21:17;100360.38;;;11.34;82.07
75536;BME280;64119;52.070;20.804;2024-03-22T12:23:45;100363.59;;;11.32;82.59
75536;BME280;64119;52.070;20.804;2024-03-22T12:26:13;100356.77;;;11.31;82.50
75536;BME280;64119;52.070;20.804;2024-03-22T12:28:40;100347.53;;;11.32;82.41
75536;BME280;64119;52.070;20.804;2024-03-22T12:31:08;100343.41;;;11.31;81.16
75536;BME280;64119;52.070;20.804;2024-03-22T12:33:37;100338.95;;;11.30;81.85
75536;BME280;64119;52.070;20.804;2024-03-22T12:36:05;100333.81;;;11.32;81.99
75536;BME280;64119;52.070;20.804;2024-03-22T12:38:33;100322.80;;;11.36;81.79
75536;BME280;64119;52.070;20.804;2024-03-22T12:41:01;100321.40;;;11.34;80.83
75536;BME280;64119;52.070;20.804;2024-03-22T12:43:28;100316.77;;;11.32;80.41
75536;BME280;64119;52.070;20.804;2024-03-22T12:45:58;100315.42;;;11.32;81.36
75536;BME280;64119;52.070;20.804;2024-03-22T12:48:25;100305.60;;;11.39;80.72